Time;durP1;ratioP1;P1;durP2;ratioP2;P2;SDS_P1;SDS_P2;PMS_P1;PMS_P2;Temp;Humidity;BMP_temperature;BMP_pressure;BME280_temperature;BME280_humidity;BME280_pressure;Samples;Min_cycle;Max_cycle;Signal;HPM_P1;HPM_P2
2022/02/25 00:01:05;;;;;;;;;;;2.30;79.30;;;;;;6166212;23;19967;-77
2022/02/25 00:03:32;;;;;;;;;;;2.30;78.50;;;;;;6162445;23;19955;-79
2022/02/25 00:05:59;;;;;;;;;;;2.30;78.90;;;;;;6174969;23;19920;-77
2022/02/25 00:08:26;;;;;;;;;;;2.30;79.00;;;;;;6169975;23;19924;-78
2022/02/25 00:10:53;;;;;;;;;;;2.10;79.00;;;;;;6166997;23;19923;-76
2022/02/25 00:13:19;;;;;;;;;;;2.10;78.80;;;;;;6186873;23;19920;-76
2022/02/25 00:15:46;;;;;;;;;;;2.10;81.20;;;;;;6166431;23;19916;-79
2022/02/25 00:18:13;;;;;;;;;;;2.10;81.10;;;;;;6190637;23;19921;-77
2022/02/25 00:20:40;;;;;;;;;;;2.00;80.00;;;;;;6166644;23;19974;-76
2022/02/25 00:23:08;;;;;;;;;;;2.00;80.10;;;;;;6189963;23;19916;-75
2022/02/25 00:25:35;;;;;;;;;;;2.00;80.20;;;;;;6188793;23;20253;-78
2022/02/25 00:28:02;;;;;;;;;;;1.90;78.80;;;;;;6200070;23;19940;-79
2022/02/25 00:30:29;;;;;;;;;;;1.90;78.30;;;;;;6162460;23;20235;-76
2022/02/25 00:32:56;;;;;;;;;;;1.70;79.60;;;;;;6194883;23;19916;-78
2022/02/25 00:35:22;;;;;;;;;;;1.70;78.90;;;;;;6186727;23;20309;-77
2022/02/25 00:37:49;;;;;;;;;;;1.70;78.20;;;;;;6190928;23;19920;-77
2022/02/25 00:40:16;;;;;;;;;;;1.70;78.40;;;;;;6170802;23;19916;-76
2022/02/25 00:42:43;;;;;;;;;;;1.70;78.60;;;;;;6202831;23;19917;-76
2022/02/25 00:45:09;;;;;;;;;;;1.60;79.70;;;;;;6193207;23;20400;-78
2022/02/25 00:47:37;;;;;;;;;;;1.60;79.80;;;;;;6167222;23;19990;-76
2022/02/25 00:50:05;;;;;;;;;;;1.60;78.70;;;;;;6198854;23;19967;-76
2022/02/25 00:52:32;;;;;;;;;;;1.60;78.40;;;;;;6195505;23;20392;-76
2022/02/25 00:54:58;;;;;;;;;;;1.60;79.00;;;;;;6199506;23;19916;-76
2022/02/25 00:57:25;;;;;;;;;;;1.60;78.70;;;;;;6191370;23;19916;-76
2022/02/25 00:59:54;;;;;;;;;;;1.60;79.50;;;;;;6196099;23;19916;-76
2022/02/25 01:02:22;;;;;;;;;;;1.60;79.30;;;;;;6186808;23;19916;-77
2022/02/25 01:04:49;;;;;;;;;;;1.50;79.30;;;;;;6162089;23;19916;-79
2022/02/25 01:07:15;;;;;;;;;;;1.50;80.30;;;;;;6163025;23;19963;-76
2022/02/25 01:09:43;;;;;;;;;;;1.60;82.00;;;;;;6192218;23;20345;-78
2022/02/25 01:12:11;;;;;;;;;;;1.60;81.40;;;;;;6169817;23;19970;-76
2022/02/25 01:14:37;;;;;;;;;;;1.60;80.90;;;;;;6186590;23;19958;-76
2022/02/25 01:17:04;;;;;;;;;;;1.50;80.70;;;;;;6195448;23;19916;-76
2022/02/25 01:19:31;;;;;;;;;;;1.50;81.20;;;;;;6195612;23;20054;-76
2022/02/25 01:21:58;;;;;;;;;;;1.50;81.20;;;;;;6191220;23;19974;-79
2022/02/25 01:24:24;;;;;;;;;;;1.40;83.70;;;;;;6168903;23;19916;-76
2022/02/25 01:26:51;;;;;;;;;;;1.20;85.40;;;;;;6167398;23;19916;-79
2022/02/25 01:29:18;;;;;;;;;;;1.20;84.50;;;;;;6167721;23;19970;-76
2022/02/25 01:31:46;;;;;;;;;;;1.20;83.80;;;;;;6193717;23;19916;-76
2022/02/25 01:34:13;;;;;;;;;;;1.10;83.10;;;;;;6196091;23;19939;-76
2022/02/25 01:36:41;;;;;;;;;;;1.10;83.90;;;;;;6191138;23;19995;-78
2022/02/25 01:39:07;;;;;;;;;;;1.10;83.10;;;;;;6190302;23;19916;-76
2022/02/25 01:41:37;;;;;;;;;;;1.10;83.80;;;;;;6170884;23;19916;-77
2022/02/25 01:44:15;;;;;;;;;;;1.10;83.70;;;;;;6185878;23;19920;-75
2022/02/25 01:46:48;;;;;;;;;;;1.10;84.60;;;;;;6193232;23;19916;-78
2022/02/25 01:49:15;;;;;;;;;;;1.10;84.50;;;;;;6187114;23;19942;-77
2022/02/25 01:51:42;;;;;;;;;;;1.10;84.30;;;;;;6187527;23;20333;-76
2022/02/25 01:54:09;;;;;;;;;;;1.10;84.30;;;;;;6191162;23;19916;-75
2022/02/25 01:56:37;;;;;;;;;;;1.10;83.90;;;;;;6190760;23;20392;-77
2022/02/25 01:59:04;;;;;;;;;;;1.10;84.40;;;;;;6164643;23;20329;-77
2022/02/25 02:01:31;;;;;;;;;;;1.00;84.70;;;;;;6160668;23;20371;-76
2022/02/25 02:03:59;;;;;;;;;;;0.90;84.30;;;;;;6185853;23;20333;-79
2022/02/25 02:06:26;;;;;;;;;;;0.90;83.90;;;;;;6169585;23;19916;-76
2022/02/25 02:08:53;;;;;;;;;;;0.90;84.30;;;;;;6188524;23;20400;-76
2022/02/25 02:11:40;;;;;;;;;;;0.90;83.60;;;;;;6189398;23;20049;-79
2022/02/25 02:14:08;;;;;;;;;;;0.90;83.40;;;;;;6169179;23;19916;-76
2022/02/25 02:16:35;;;;;;;;;;;0.90;83.10;;;;;;6187535;23;20234;-78
2022/02/25 02:19:02;;;;;;;;;;;0.90;82.80;;;;;;6186506;23;19916;-79
2022/02/25 02:21:30;;;;;;;;;;;0.90;82.80;;;;;;6164827;23;19920;-77
2022/02/25 02:23:58;;;;;;;;;;;0.90;82.50;;;;;;6171173;23;19916;-75
2022/02/25 02:26:25;;;;;;;;;;;0.90;81.60;;;;;;6194968;23;19967;-78
2022/02/25 02:28:52;;;;;;;;;;;0.80;84.00;;;;;;6186894;23;19920;-76
2022/02/25 02:31:19;;;;;;;;;;;0.50;85.20;;;;;;6185533;23;19920;-77
2022/02/25 02:33:46;;;;;;;;;;;0.40;85.30;;;;;;6193272;23;19986;-78
2022/02/25 02:36:14;;;;;;;;;;;0.30;88.50;;;;;;6160682;23;19916;-78
2022/02/25 02:38:41;;;;;;;;;;;0.30;88.00;;;;;;6165103;23;19920;-76
2022/02/25 02:41:08;;;;;;;;;;;0.40;86.10;;;;;;6165911;23;20050;-75
2022/02/25 02:43:36;;;;;;;;;;;0.40;85.40;;;;;;6196194;23;19916;-75
2022/02/25 02:46:03;;;;;;;;;;;0.40;85.40;;;;;;6167224;23;19920;-75
2022/02/25 02:48:30;;;;;;;;;;;0.50;86.00;;;;;;6189484;23;19924;-77
2022/02/25 02:50:57;;;;;;;;;;;0.50;85.90;;;;;;6189073;23;19916;-75
2022/02/25 02:53:24;;;;;;;;;;;0.50;85.50;;;;;;6191116;23;19916;-78
2022/02/25 02:55:51;;;;;;;;;;;0.50;84.90;;;;;;6161065;23;19983;-78
2022/02/25 02:58:18;;;;;;;;;;;0.50;86.20;;;;;;6198098;23;19920;-78
2022/02/25 03:00:45;;;;;;;;;;;0.50;87.40;;;;;;6186504;23;19916;-79
2022/02/25 03:03:13;;;;;;;;;;;0.40;87.10;;;;;;6165291;23;20257;-79
2022/02/25 03:05:40;;;;;;;;;;;0.40;86.10;;;;;;6160864;23;19983;-77
2022/02/25 03:08:07;;;;;;;;;;;0.40;85.30;;;;;;6160699;23;19917;-76
2022/02/25 03:10:35;;;;;;;;;;;0.40;85.50;;;;;;6161247;23;20281;-75
2022/02/25 03:13:02;;;;;;;;;;;0.40;84.90;;;;;;6192693;23;20330;-75
2022/02/25 03:15:29;;;;;;;;;;;0.50;85.10;;;;;;6195593;23;19916;-75
2022/02/25 03:17:56;;;;;;;;;;;0.50;85.10;;;;;;6192965;23;19971;-78
2022/02/25 03:20:23;;;;;;;;;;;0.50;84.50;;;;;;6166612;23;19916;-79
2022/02/25 03:22:51;;;;;;;;;;;0.50;84.10;;;;;;6191144;23;19992;-76
2022/02/25 03:25:18;;;;;;;;;;;0.50;83.70;;;;;;6186216;23;19916;-77
2022/02/25 03:27:45;;;;;;;;;;;0.50;84.60;;;;;;6160302;23;20400;-76
2022/02/25 03:30:14;;;;;;;;;;;0.40;84.30;;;;;;6189019;23;19954;-78
2022/02/25 03:32:44;;;;;;;;;;;0.40;83.90;;;;;;6165024;23;19916;-78
2022/02/25 03:35:12;;;;;;;;;;;0.40;83.30;;;;;;6162070;23;19916;-76
2022/02/25 03:37:39;;;;;;;;;;;0.30;83.10;;;;;;6170945;23;20011;-77
2022/02/25 03:40:07;;;;;;;;;;;0.20;83.10;;;;;;6168729;23;19916;-78
2022/02/25 03:42:34;;;;;;;;;;;0.20;83.80;;;;;;6185163;23;20257;-77
2022/02/25 03:45:01;;;;;;;;;;;0.10;83.30;;;;;;6191189;23;19920;-75
2022/02/25 03:47:27;;;;;;;;;;;0.10;84.00;;;;;;6193206;23;19916;-76
2022/02/25 03:49:54;;;;;;;;;;;0.10;83.10;;;;;;6193968;23;19919;-79
2022/02/25 03:52:21;;;;;;;;;;;0.10;83.00;;;;;;6161191;23;19920;-76
2022/02/25 03:54:48;;;;;;;;;;;0.10;82.90;;;;;;6164308;23;19920;-76
2022/02/25 03:57:15;;;;;;;;;;;0.10;83.00;;;;;;6192751;23;19916;-77
2022/02/25 03:59:41;;;;;;;;;;;0.10;83.00;;;;;;6196280;23;19916;-78
2022/02/25 04:02:08;;;;;;;;;;;0.00;82.60;;;;;;6165915;23;20301;-79
2022/02/25 04:04:35;;;;;;;;;;;0.00;82.90;;;;;;6160324;23;20297;-78
2022/02/25 04:07:02;;;;;;;;;;;0.00;83.20;;;;;;6191512;23;19916;-78
2022/02/25 04:09:29;;;;;;;;;;;0.00;82.40;;;;;;6185804;23;19916;-76
2022/02/25 04:11:56;;;;;;;;;;;0.00;82.20;;;;;;6186139;23;19962;-77
2022/02/25 04:14:23;;;;;;;;;;;0.00;81.80;;;;;;6169871;23;19922;-79
2022/02/25 04:16:51;;;;;;;;;;;-0.10;82.40;;;;;;6188533;23;20330;-76
2022/02/25 04:19:18;;;;;;;;;;;-0.10;81.90;;;;;;6196750;23;19992;-76
2022/02/25 04:21:45;;;;;;;;;;;-0.10;82.90;;;;;;6166997;23;19916;-77
2022/02/25 04:24:13;;;;;;;;;;;-0.10;82.60;;;;;;6188850;23;19916;-76
2022/02/25 04:26:40;;;;;;;;;;;-0.10;84.70;;;;;;6166242;23;19916;-76
2022/02/25 04:29:07;;;;;;;;;;;-0.10;84.00;;;;;;6200398;23;19900;-76
2022/02/25 04:31:33;;;;;;;;;;;-0.10;83.00;;;;;;6196688;23;19916;-76
2022/02/25 04:34:00;;;;;;;;;;;-0.20;84.40;;;;;;6171072;23;19920;-79
2022/02/25 04:36:27;;;;;;;;;;;-0.20;83.80;;;;;;6167033;23;19916;-75
2022/02/25 04:38:54;;;;;;;;;;;-0.20;83.20;;;;;;6202008;23;19916;-78
2022/02/25 04:41:21;;;;;;;;;;;-0.20;83.80;;;;;;6186718;23;19967;-77
2022/02/25 04:43:48;;;;;;;;;;;-0.20;84.80;;;;;;6162004;23;20334;-76
2022/02/25 04:46:18;;;;;;;;;;;-0.30;85.40;;;;;;6161458;23;19951;-76
2022/02/25 04:48:45;;;;;;;;;;;-0.30;85.90;;;;;;6172507;23;19916;-78
2022/02/25 04:51:13;;;;;;;;;;;-0.30;84.90;;;;;;6191299;23;19916;-76
2022/02/25 04:53:40;;;;;;;;;;;-0.30;85.20;;;;;;6193019;23;19916;-77
2022/02/25 04:56:06;;;;;;;;;;;-0.40;84.60;;;;;;6207754;23;19916;-79
2022/02/25 04:58:33;;;;;;;;;;;-0.30;84.50;;;;;;6161859;23;20261;-77
2022/02/25 05:01:01;;;;;;;;;;;-0.40;85.00;;;;;;6161268;23;20016;-78
2022/02/25 05:03:28;;;;;;;;;;;-0.30;84.10;;;;;;6166935;23;19916;-76
2022/02/25 05:05:55;;;;;;;;;;;-0.30;85.60;;;;;;6187259;23;19916;-78
2022/02/25 05:08:22;;;;;;;;;;;-0.50;86.50;;;;;;6166092;23;19947;-77
2022/02/25 05:10:49;;;;;;;;;;;-0.50;85.50;;;;;;6170453;23;19920;-79
2022/02/25 05:13:16;;;;;;;;;;;-0.50;84.40;;;;;;6171164;23;19900;-78
2022/02/25 05:21:14;;;;;;;;;;;-0.80;83.70;;;;;;6200926;23;19916;-76
2022/02/25 05:23:40;;;;;;;;;;;-0.90;84.10;;;;;;6200263;23;19944;-76
2022/02/25 05:26:07;;;;;;;;;;;-0.90;83.70;;;;;;6172030;23;20322;-78
2022/02/25 05:28:34;;;;;;;;;;;-0.80;84.30;;;;;;6186939;23;19916;-78
2022/02/25 05:31:01;;;;;;;;;;;-0.80;85.10;;;;;;6165998;23;19943;-76
2022/02/25 05:33:28;;;;;;;;;;;-0.80;86.40;;;;;;6188292;23;20392;-76
2022/02/25 05:35:54;;;;;;;;;;;-0.80;85.10;;;;;;6167410;23;20307;-77
2022/02/25 05:38:21;;;;;;;;;;;-0.70;84.90;;;;;;6168748;23;19920;-77
2022/02/25 05:40:49;;;;;;;;;;;-0.70;85.10;;;;;;6200336;23;19916;-76
2022/02/25 05:43:15;;;;;;;;;;;-0.70;84.60;;;;;;6192894;23;19967;-78
2022/02/25 05:45:42;;;;;;;;;;;-0.70;84.40;;;;;;6165701;23;19916;-77
2022/02/25 05:48:09;;;;;;;;;;;-0.70;84.00;;;;;;6161167;23;19920;-78
2022/02/25 05:50:36;;;;;;;;;;;-0.70;83.90;;;;;;6161839;23;19963;-76
2022/02/25 05:53:03;;;;;;;;;;;-0.80;83.40;;;;;;6166042;23;19971;-76
2022/02/25 05:55:30;;;;;;;;;;;-0.80;83.10;;;;;;6194616;23;19963;-77
2022/02/25 05:57:57;;;;;;;;;;;-0.80;83.30;;;;;;6196065;23;19916;-77
2022/02/25 06:21:53;;;;;;;;;;;-0.80;84.70;;;;;;6176085;23;19920;-77
2022/02/25 06:24:20;;;;;;;;;;;-0.80;84.80;;;;;;6200703;23;20243;-79
2022/02/25 06:26:47;;;;;;;;;;;-0.80;85.50;;;;;;6192492;23;19916;-78
2022/02/25 06:29:16;;;;;;;;;;;-0.80;86.10;;;;;;6188097;23;19934;-76
2022/02/25 06:31:43;;;;;;;;;;;-0.80;85.10;;;;;;6187749;23;19917;-78
2022/02/25 06:34:10;;;;;;;;;;;-0.80;84.70;;;;;;6190849;23;20301;-78
2022/02/25 06:36:38;;;;;;;;;;;-0.70;86.00;;;;;;6192039;23;19916;-76
2022/02/25 06:39:04;;;;;;;;;;;-0.80;88.40;;;;;;6192289;23;19923;-77
2022/02/25 06:41:31;;;;;;;;;;;-0.70;86.80;;;;;;6189429;23;19916;-77
2022/02/25 06:43:58;;;;;;;;;;;-0.70;85.50;;;;;;6191204;23;19916;-76
2022/02/25 06:46:25;;;;;;;;;;;-0.70;85.90;;;;;;6186181;23;20013;-78
2022/02/25 06:48:52;;;;;;;;;;;-0.70;85.60;;;;;;6186878;23;19920;-77
2022/02/25 06:51:19;;;;;;;;;;;-0.70;84.70;;;;;;6191177;23;19963;-78
2022/02/25 06:53:45;;;;;;;;;;;-0.70;84.70;;;;;;6190382;23;20333;-79
2022/02/25 06:56:12;;;;;;;;;;;-0.70;84.90;;;;;;6190581;23;20360;-77
2022/02/25 06:58:39;;;;;;;;;;;-0.70;85.20;;;;;;6190927;23;19916;-76
2022/02/25 07:01:06;;;;;;;;;;;-0.60;85.20;;;;;;6189293;23;19923;-79
2022/02/25 07:03:33;;;;;;;;;;;-0.60;86.00;;;;;;6189451;23;19916;-77
2022/02/25 07:06:00;;;;;;;;;;;-0.50;85.50;;;;;;6185291;23;19916;-78
2022/02/25 07:08:27;;;;;;;;;;;-0.50;85.10;;;;;;6190384;23;19956;-78
2022/02/25 07:10:54;;;;;;;;;;;-0.40;85.50;;;;;;6188338;23;20304;-76
2022/02/25 07:13:21;;;;;;;;;;;-0.40;89.10;;;;;;6167955;23;19940;-76
2022/02/25 07:15:48;;;;;;;;;;;-0.40;88.40;;;;;;6168643;23;19916;-77
2022/02/25 07:18:16;;;;;;;;;;;-0.30;87.10;;;;;;6171217;23;19922;-77
2022/02/25 07:20:43;;;;;;;;;;;-0.20;87.90;;;;;;6163414;23;20326;-77
2022/02/25 07:23:11;;;;;;;;;;;-0.20;88.70;;;;;;6159634;23;19920;-77
2022/02/25 07:25:38;;;;;;;;;;;-0.10;89.20;;;;;;6156597;23;19996;-77
2022/02/25 07:28:05;;;;;;;;;;;-0.10;89.40;;;;;;6162422;23;19916;-77
2022/02/25 07:30:33;;;;;;;;;;;0.10;89.20;;;;;;6163752;23;19969;-77
2022/02/25 07:33:00;;;;;;;;;;;0.20;90.00;;;;;;6156639;23;19917;-78
2022/02/25 07:35:27;;;;;;;;;;;0.40;90.20;;;;;;6159015;23;19920;-78
2022/02/25 07:37:53;;;;;;;;;;;0.50;88.80;;;;;;6159439;23;19924;-77
2022/02/25 07:40:22;;;;;;;;;;;0.70;90.20;;;;;;6164242;23;19924;-78
2022/02/25 07:42:49;;;;;;;;;;;0.90;90.40;;;;;;6163454;23;19916;-77
2022/02/25 07:45:16;;;;;;;;;;;1.10;89.10;;;;;;6164288;23;19917;-77
2022/02/25 07:47:43;;;;;;;;;;;1.30;87.90;;;;;;6156581;23;19963;-77
2022/02/25 07:50:11;;;;;;;;;;;1.50;87.70;;;;;;6162755;23;19908;-77
2022/02/25 07:52:39;;;;;;;;;;;1.70;87.00;;;;;;6163426;23;20343;-76
2022/02/25 07:55:06;;;;;;;;;;;2.00;89.20;;;;;;6158669;23;19916;-76
2022/02/25 07:57:35;;;;;;;;;;;2.20;89.20;;;;;;6161774;23;20265;-75
2022/02/25 08:00:20;;;;;;;;;;;2.50;87.80;;;;;;6162371;23;19944;-75
2022/02/25 08:02:47;;;;;;;;;;;2.70;87.90;;;;;;6168566;23;19916;-78
2022/02/25 08:05:14;;;;;;;;;;;2.90;86.00;;;;;;6161018;23;19916;-78
2022/02/25 08:07:42;;;;;;;;;;;3.10;85.60;;;;;;6156468;23;19921;-78
2022/02/25 08:10:09;;;;;;;;;;;3.30;84.60;;;;;;6160709;23;19939;-76
2022/02/25 08:12:39;;;;;;;;;;;3.60;83.90;;;;;;6156789;23;19923;-78
2022/02/25 08:15:07;;;;;;;;;;;3.80;82.90;;;;;;6163047;23;19917;-76
2022/02/25 08:17:34;;;;;;;;;;;4.10;80.40;;;;;;6162211;23;19917;-76
2022/02/25 08:20:01;;;;;;;;;;;4.30;79.80;;;;;;6166209;23;19997;-77
2022/02/25 08:22:31;;;;;;;;;;;4.50;78.20;;;;;;6194356;23;19916;-78
2022/02/25 08:24:58;;;;;;;;;;;4.70;77.50;;;;;;6186776;23;19916;-78
2022/02/25 08:27:25;;;;;;;;;;;4.90;77.40;;;;;;6187858;23;19916;-78
2022/02/25 08:29:52;;;;;;;;;;;5.20;76.40;;;;;;6192346;23;19920;-76
2022/02/25 08:32:19;;;;;;;;;;;5.40;76.50;;;;;;6168317;23;19987;-78
2022/02/25 08:34:46;;;;;;;;;;;5.60;76.30;;;;;;6186479;23;19967;-78
2022/02/25 08:37:14;;;;;;;;;;;5.90;74.50;;;;;;6191242;23;19927;-78
2022/02/25 08:39:41;;;;;;;;;;;6.10;74.30;;;;;;6189912;23;19917;-78
2022/02/25 08:42:08;;;;;;;;;;;6.30;73.30;;;;;;6189484;23;19917;-75
2022/02/25 08:44:36;;;;;;;;;;;6.60;72.70;;;;;;6188236;23;19920;-78
2022/02/25 08:47:04;;;;;;;;;;;6.80;72.20;;;;;;6190253;23;19920;-78
2022/02/25 08:49:31;;;;;;;;;;;7.00;70.00;;;;;;6191670;23;19916;-78
2022/02/25 08:51:58;;;;;;;;;;;7.20;68.90;;;;;;6191278;23;19916;-78
2022/02/25 08:54:30;;;;;;;;;;;7.40;68.90;;;;;;6190836;23;20037;-78
2022/02/25 08:56:57;;;;;;;;;;;7.50;68.90;;;;;;6198960;23;19962;-75
2022/02/25 08:59:24;;;;;;;;;;;7.70;67.80;;;;;;6168216;23;19920;-76
2022/02/25 09:01:53;;;;;;;;;;;7.90;66.80;;;;;;6163814;23;20381;-81
2022/02/25 09:04:21;;;;;;;;;;;8.10;67.30;;;;;;6172744;23;19916;-78
2022/02/25 09:06:47;;;;;;;;;;;8.30;66.30;;;;;;6165415;23;20293;-78
2022/02/25 09:12:18;;;;;;;;;;;8.50;67.30;;;;;;6197089;23;19923;-77
2022/02/25 09:14:45;;;;;;;;;;;8.50;66.10;;;;;;6165505;23;19965;-78
2022/02/25 09:17:12;;;;;;;;;;;8.70;66.70;;;;;;6161654;23;20329;-79
2022/02/25 09:19:39;;;;;;;;;;;8.90;66.20;;;;;;6170474;23;19939;-76
2022/02/25 09:22:07;;;;;;;;;;;9.20;65.10;;;;;;6162188;23;20293;-79
2022/02/25 09:24:34;;;;;;;;;;;9.30;64.70;;;;;;6187784;23;20344;-78
2022/02/25 09:27:01;;;;;;;62.75;37.75;;;9.40;63.70;;;;;;6164167;23;19982;-79
2022/02/25 09:29:28;;;;;;;60.57;44.07;;;9.50;61.60;;;;;;6187530;23;20353;-78
2022/02/25 09:31:55;;;;;;;55.42;41.53;;;9.60;62.60;;;;;;6187397;23;20427;-78
2022/02/25 09:34:22;;;;;;;59.57;41.17;;;9.80;62.60;;;;;;6190756;23;20516;-78
2022/02/25 09:36:49;;;;;;;51.53;39.25;;;10.00;61.80;;;;;;6190187;23;20384;-78
2022/02/25 09:39:19;;;;;;;53.47;39.55;;;10.10;61.00;;;;;;6190733;23;20447;-79
2022/02/25 09:41:48;;;;;;;53.38;38.83;;;10.30;60.30;;;;;;6194409;23;20360;-78
2022/02/25 09:44:16;;;;;;;53.67;41.00;;;10.60;60.20;;;;;;6190392;23;20364;-76
2022/02/25 09:46:44;;;;;;;54.90;41.13;;;10.70;58.20;;;;;;6194135;23;20399;-78
2022/02/25 09:49:12;;;;;;;55.70;40.90;;;10.70;58.20;;;;;;6188918;23;20371;-78
2022/02/25 09:51:39;;;;;;;55.72;40.85;;;10.90;58.70;;;;;;6162710;23;20690;-78
2022/02/25 09:54:07;;;;;;;56.20;42.00;;;10.90;58.40;;;;;;6194893;23;20368;-78
2022/02/25 09:56:34;;;;;;;57.15;42.08;;;10.90;58.40;;;;;;6184234;23;20384;-78
2022/02/25 09:59:01;;;;;;;58.08;42.75;;;11.00;57.20;;;;;;6186713;23;20364;-79
2022/02/25 10:01:33;;;;;;;57.72;42.22;;;11.10;56.80;;;;;;6190237;23;20360;-79
2022/02/25 10:04:15;;;;;;;54.53;41.50;;;11.10;57.20;;;;;;6192147;23;20849;-79
2022/02/25 10:06:43;;;;;;;57.60;42.03;;;11.20;57.00;;;;;;6191740;23;20408;-79
2022/02/25 10:09:38;;;;;;;54.55;40.00;;;11.50;56.20;;;;;;6192069;23;20369;-79
2022/02/25 10:12:09;;;;;;;48.08;36.28;;;11.70;56.30;;;;;;6189051;23;20411;-78
2022/02/25 10:14:40;;;;;;;47.97;37.35;;;11.70;56.30;;;;;;6188455;23;20845;-79
2022/02/25 10:17:22;;;;;;;54.88;40.50;;;12.00;56.10;;;;;;6185740;23;20388;-78
2022/02/25 10:19:54;;;;;;;47.63;37.00;;;12.20;54.20;;;;;;6188300;23;20408;-78
2022/02/25 10:22:32;;;;;;;58.53;41.38;;;12.30;54.60;;;;;;6189290;23;20384;-79
2022/02/25 10:25:01;;;;;;;61.78;41.60;;;12.50;53.30;;;;;;6166493;23;20663;-79
2022/02/25 10:27:37;;;;;;;59.47;41.57;;;12.60;51.10;;;;;;6191596;23;20400;-79
2022/02/25 10:30:11;;;;;;;62.03;41.78;;;12.70;52.00;;;;;;6188170;23;20364;-78
2022/02/25 10:32:42;;;;;;;60.50;41.80;;;12.80;51.30;;;;;;6186346;23;20357;-78
2022/02/25 10:35:21;;;;;;;58.50;42.03;;;12.90;50.00;;;;;;6186688;23;20360;-78
2022/02/25 10:38:10;;;;;;;58.33;42.25;;;12.90;50.30;;;;;;6161795;23;20853;-78
2022/02/25 10:40:40;;;;;;;56.15;41.58;;;13.00;51.70;;;;;;6164704;23;20376;-79
2022/02/25 10:43:22;;;;;;;53.35;40.05;;;13.00;51.90;;;;;;6173017;23;20365;-79
2022/02/25 10:45:51;;;;;;;56.88;41.38;;;13.20;51.80;;;;;;6191207;23;20357;-79
2022/02/25 10:48:20;;;;;;;55.15;41.28;;;13.40;51.90;;;;;;6163363;23;20849;-75
2022/02/25 10:50:57;;;;;;;60.17;42.22;;;13.50;51.20;;;;;;6191595;23;20361;-79
2022/02/25 10:53:47;;;;;;;65.47;45.75;;;13.80;50.50;;;;;;6191201;23;20372;-79
2022/02/25 10:56:16;;;;;;;61.55;45.60;;;13.80;48.10;;;;;;6188491;23;20919;-79
2022/02/25 10:58:54;;;;;;;62.33;45.20;;;13.90;48.30;;;;;;6194644;23;20361;-79
2022/02/25 11:01:24;;;;;;;65.93;47.22;;;13.80;47.60;;;;;;6196546;23;20387;-75
2022/02/25 11:04:04;;;;;;;60.45;43.88;;;13.90;48.10;;;;;;6197415;23;20356;-79
2022/02/25 11:06:31;;;;;;;63.67;46.30;;;14.00;48.00;;;;;;6195369;23;20414;-79
2022/02/25 11:08:59;;;;;;;65.20;45.47;;;14.30;48.20;;;;;;6195792;23;20376;-79
2022/02/25 11:11:26;;;;;;;62.28;45.05;;;14.30;46.70;;;;;;6192000;23;20361;-79
2022/02/25 11:13:53;;;;;;;62.35;44.22;;;14.40;46.70;;;;;;6198238;23;20447;-81
2022/02/25 11:16:21;;;;;;;;;;;14.50;46.20;;;;;;6194215;23;20087;-79
2022/02/25 11:19:07;;;;;;;;;;;14.60;45.50;;;;;;6175678;23;19939;-79
2022/02/25 11:21:35;;;;;;;;;;;14.50;45.70;;;;;;6173814;23;19921;-79
2022/02/25 11:24:02;;;;;;;;;;;14.20;45.10;;;;;;6169140;23;19916;-79
2022/02/25 11:26:29;;;;;;;;;;;14.10;46.10;;;;;;6162310;23;20245;-79
2022/02/25 11:29:00;;;;;;;;;;;14.30;46.20;;;;;;6165575;23;19916;-76
2022/02/25 11:31:32;;;;;;;;;;;14.50;45.40;;;;;;6164010;23;20326;-80
2022/02/25 11:34:00;;;;;;;;;;;14.50;44.60;;;;;;6163233;23;20250;-79
2022/02/25 11:36:41;;;;;;;;;;;14.10;44.90;;;;;;6163569;23;19917;-79
2022/02/25 11:39:37;;;;;;;;;;;14.10;45.50;;;;;;6164506;23;19940;-79
2022/02/25 11:42:04;;;;;;;;;;;14.40;45.00;;;;;;6153796;23;19921;-79
2022/02/25 11:44:35;;;;;;;;;;;14.50;45.30;;;;;;6169166;23;19916;-77
2022/02/25 11:47:02;;;;;;;;;;;14.80;46.50;;;;;;6174092;23;19923;-76
2022/02/25 11:49:30;;;;;;;;;;;15.10;44.30;;;;;;6161218;23;19917;-79
2022/02/25 11:51:58;;;;;;;;;;;15.30;43.00;;;;;;6163422;23;19916;-79
2022/02/25 11:54:27;;;;;;;;;;;15.40;42.00;;;;;;6167265;23;19963;-77
2022/02/25 11:56:59;;;;;;;;;;;15.40;42.10;;;;;;6173010;23;19916;-79
2022/02/25 11:59:47;;;;;;;;;;;15.50;43.30;;;;;;6180534;23;19917;-79
2022/02/25 12:02:35;;;;;;;;;;;15.70;42.40;;;;;;6167512;23;19920;-79
2022/02/25 12:05:05;;;;;;;;;;;15.70;41.50;;;;;;6162989;23;19916;-78
2022/02/25 12:07:32;;;;;;;;;;;15.20;42.40;;;;;;6170360;23;19927;-80
2022/02/25 12:10:00;;;;;;;;;;;15.40;42.20;;;;;;6163709;23;19967;-79
2022/02/25 12:12:27;;;;;;;;;;;15.40;41.30;;;;;;6166523;23;19940;-79
2022/02/25 12:15:16;;;;;;;;;;;15.20;41.70;;;;;;6165474;23;20239;-79
2022/02/25 12:17:51;;;;;;;;;;;15.20;41.50;;;;;;6165227;23;19921;-79
2022/02/25 12:20:37;;;;;;;;;;;15.60;42.00;;;;;;6159390;23;20235;-79
2022/02/25 12:23:05;;;;;;;;;;;15.90;41.00;;;;;;6198630;23;19935;-79
2022/02/25 12:25:52;;;;;;;;;;;16.00;41.80;;;;;;6161746;23;19959;-79
2022/02/25 12:28:31;;;;;;;;;;;15.90;39.90;;;;;;6174102;23;19922;-79
2022/02/25 12:30:59;;;;;;;;;;;15.70;40.70;;;;;;6169945;23;20230;-79
2022/02/25 12:33:26;;;;;;;;;;;15.80;41.50;;;;;;6163957;23;19950;-78
2022/02/25 12:35:56;;;;;;;;;;;16.10;41.00;;;;;;6160517;23;19942;-79
2022/02/25 12:38:24;;;;;;;;;;;16.40;41.20;;;;;;6168745;23;19916;-77
2022/02/25 12:40:52;;;;;;;;;;;16.60;39.70;;;;;;6169908;23;20337;-78
2022/02/25 12:43:20;;;;;;;;;;;16.60;39.00;;;;;;6174126;23;19967;-78
2022/02/25 12:45:47;;;;;;;;;;;16.60;39.40;;;;;;6171682;23;19916;-78
2022/02/25 12:48:19;;;;;;;;;;;16.50;40.00;;;;;;6176627;23;19922;-76
2022/02/25 12:50:46;;;;;;;;;;;16.60;39.50;;;;;;6174903;23;19923;-78
2022/02/25 12:53:13;;;;;;;;;;;16.50;39.00;;;;;;6191277;23;19916;-76
2022/02/25 12:55:55;;;;;;;;;;;16.70;40.20;;;;;;6176098;23;19939;-76
2022/02/25 12:58:32;;;;;;;;;;;16.70;39.10;;;;;;6191436;23;19989;-79
2022/02/25 13:00:59;;;;;;;;;;;17.10;37.40;;;;;;6170427;23;19971;-79
2022/02/25 13:03:26;;;;;;;;;;;17.10;37.40;;;;;;6172751;23;19950;-76
2022/02/25 13:05:54;;;;;;;;;;;17.20;39.00;;;;;;6163562;23;19924;-79
2022/02/25 13:08:21;;;;;;;;;;;17.40;37.70;;;;;;6209285;23;19900;-79
2022/02/25 13:10:58;;;;;;;;;;;17.70;38.10;;;;;;6203032;23;19916;-78
2022/02/25 13:13:24;;;;;;;;;;;17.90;35.60;;;;;;6195116;23;20308;-78
2022/02/25 13:16:01;;;;;;;;;;;17.80;31.70;;;;;;6196628;23;19915;-79
2022/02/25 13:18:28;;;;;;;;;;;18.10;21.70;;;;;;6203386;23;19900;-79
2022/02/25 13:21:00;;;;;;;;;;;18.30;21.40;;;;;;6177849;23;19900;-79
2022/02/25 13:23:27;;;;;;;;;;;18.60;19.50;;;;;;6174064;23;19920;-78
2022/02/25 13:26:01;;;;;;;;;;;18.80;20.50;;;;;;6181356;23;20330;-76
2022/02/25 13:28:28;;;;;;;;;;;18.90;19.60;;;;;;6172324;23;19923;-79
2022/02/25 13:30:56;;;;;;;;;;;19.00;19.30;;;;;;6144081;23;19986;-80
2022/02/25 13:33:23;;;;;;;;;;;18.90;18.50;;;;;;6178589;23;19923;-78
2022/02/25 13:35:53;;;;;;;;;;;18.90;18.30;;;;;;6181059;23;19916;-76
2022/02/25 13:38:21;;;;;;;;;;;18.80;18.20;;;;;;6169869;23;20345;-79
2022/02/25 13:40:56;;;;;;;;;;;18.70;18.10;;;;;;6175305;23;19975;-77
2022/02/25 13:43:42;;;;;;;;;;;18.70;18.20;;;;;;6174106;23;19963;-76
2022/02/25 13:46:14;;;;;;;;;;;18.60;17.90;;;;;;6178660;23;19916;-80
2022/02/25 13:54:23;;;;;;;;;;;18.50;17.70;;;;;;6201663;23;19916;-79
2022/02/25 13:56:52;;;;;;;;;;;18.50;17.50;;;;;;6177819;23;19900;-78
2022/02/25 13:59:21;;;;;;;;;;;18.40;16.90;;;;;;6195817;23;19916;-77
2022/02/25 14:01:48;;;;;;;;;;;18.40;17.40;;;;;;6163332;23;19924;-77
2022/02/25 14:04:19;;;;;;;;;;;18.30;16.90;;;;;;6198121;23;20273;-77
2022/02/25 14:06:53;;;;;;;;;;;18.20;17.10;;;;;;6175066;23;20289;-75
2022/02/25 14:09:22;;;;;;;;;;;18.10;17.50;;;;;;6175690;23;20265;-75
2022/02/25 14:12:22;;;;;;;;;;;18.10;16.90;;;;;;6197717;23;19916;-79
2022/02/25 14:14:53;;;;;;;;;;;18.00;16.50;;;;;;6111496;23;19906;-75
2022/02/25 14:17:21;;;;;;;;;;;17.90;16.70;;;;;;6169181;23;20250;-79
2022/02/25 14:20:04;;;;;;;;;;;17.90;17.30;;;;;;6166079;23;19916;-75
2022/02/25 14:22:35;;;;;;;;;;;17.80;16.00;;;;;;6171992;23;20392;-78
2022/02/25 14:25:34;;;;;;;;;;;17.70;16.30;;;;;;6173759;23;19921;-79
2022/02/25 14:28:06;;;;;;;;;;;17.70;16.10;;;;;;6140594;23;19924;-78
2022/02/25 14:30:35;;;;;;;;;;;17.60;15.80;;;;;;6164831;23;19944;-79
2022/02/25 14:33:04;;;;;;;;;;;17.50;16.70;;;;;;6171774;23;19964;-79
2022/02/25 14:35:31;;;;;;;;;;;17.50;16.40;;;;;;6165649;23;19916;-77
2022/02/25 14:37:58;;;;;;;;;;;17.40;16.40;;;;;;6171173;23;19927;-75
2022/02/25 14:40:27;;;;;;;;;;;17.30;16.00;;;;;;6174649;23;19900;-75
2022/02/25 14:42:54;;;;;;;;;;;17.30;16.20;;;;;;6165519;23;19916;-77
2022/02/25 14:45:21;;;;;;;;;;;17.20;16.20;;;;;;6163430;23;19916;-78
2022/02/25 14:47:47;;;;;;;;;;;17.10;16.40;;;;;;6169789;23;19922;-76
2022/02/25 14:50:15;;;;;;;;;;;16.90;16.00;;;;;;6166734;23;20333;-78
2022/02/25 14:52:43;;;;;;;;;;;16.90;16.00;;;;;;6166260;23;19917;-78